sensor_id;sensor_type;location;lat;lon;timestamp;P1;durP1;ratioP1;P2;durP2;ratioP2
18159;SDS011;9205;52.032;4.314;2024-02-15T00:01:22;13.00;;;11.77;;
18159;SDS011;9205;52.032;4.314;2024-02-15T00:03:49;13.00;;;12.00;;
18159;SDS011;9205;52.032;4.314;2024-02-15T00:06:16;12.40;;;11.80;;
18159;SDS011;9205;52.032;4.314;2024-02-15T00:08:43;12.60;;;11.90;;
18159;SDS011;9205;52.032;4.314;2024-02-15T00:11:10;12.73;;;12.03;;
18159;SDS011;9205;52.032;4.314;2024-02-15T00:13:40;12.40;;;11.80;;
18159;SDS011;9205;52.032;4.314;2024-02-15T00:16:08;13.57;;;12.67;;
18159;SDS011;9205;52.032;4.314;2024-02-15T00:18:40;12.13;;;11.53;;
18159;SDS011;9205;52.032;4.314;2024-02-15T00:21:07;12.43;;;11.73;;
18159;SDS011;9205;52.032;4.314;2024-02-15T00:23:34;12.20;;;11.60;;
18159;SDS011;9205;52.032;4.314;2024-02-15T00:26:02;13.07;;;12.37;;
18159;SDS011;9205;52.032;4.314;2024-02-15T00:28:29;13.00;;;12.30;;
18159;SDS011;9205;52.032;4.314;2024-02-15T00:30:57;13.23;;;12.43;;
18159;SDS011;9205;52.032;4.314;2024-02-15T00:33:24;13.53;;;12.63;;
18159;SDS011;9205;52.032;4.314;2024-02-15T00:35:51;13.00;;;12.30;;
18159;SDS011;9205;52.032;4.314;2024-02-15T00:38:18;12.40;;;11.80;;
18159;SDS011;9205;52.032;4.314;2024-02-15T00:40:46;12.67;;;11.97;;
18159;SDS011;9205;52.032;4.314;2024-02-15T00:43:13;12.97;;;12.30;;
18159;SDS011;9205;52.032;4.314;2024-02-15T00:45:40;13.43;;;12.73;;
18159;SDS011;9205;52.032;4.314;2024-02-15T00:48:08;13.40;;;12.70;;
18159;SDS011;9205;52.032;4.314;2024-02-15T00:50:35;13.00;;;12.30;;
18159;SDS011;9205;52.032;4.314;2024-02-15T00:53:03;13.00;;;12.00;;
18159;SDS011;9205;52.032;4.314;2024-02-15T00:55:31;12.20;;;11.60;;
18159;SDS011;9205;52.032;4.314;2024-02-15T00:57:58;14.00;;;13.10;;
18159;SDS011;9205;52.032;4.314;2024-02-15T01:00:25;13.20;;;12.50;;
18159;SDS011;9205;52.032;4.314;2024-02-15T01:02:53;13.93;;;13.13;;
18159;SDS011;9205;52.032;4.314;2024-02-15T01:05:22;13.30;;;12.60;;
18159;SDS011;9205;52.032;4.314;2024-02-15T01:07:50;13.47;;;12.70;;
18159;SDS011;9205;52.032;4.314;2024-02-15T01:10:17;13.40;;;12.60;;
18159;SDS011;9205;52.032;4.314;2024-02-15T01:12:45;14.27;;;12.83;;
18159;SDS011;9205;52.032;4.314;2024-02-15T01:15:12;13.90;;;12.60;;
18159;SDS011;9205;52.032;4.314;2024-02-15T01:17:41;12.70;;;12.10;;
18159;SDS011;9205;52.032;4.314;2024-02-15T01:20:08;13.53;;;12.67;;
18159;SDS011;9205;52.032;4.314;2024-02-15T01:22:38;13.70;;;12.80;;
18159;SDS011;9205;52.032;4.314;2024-02-15T01:25:05;13.10;;;12.40;;
18159;SDS011;9205;52.032;4.314;2024-02-15T01:27:33;14.30;;;13.30;;
18159;SDS011;9205;52.032;4.314;2024-02-15T01:30:01;14.20;;;13.30;;
18159;SDS011;9205;52.032;4.314;2024-02-15T01:32:29;13.93;;;13.23;;
18159;SDS011;9205;52.032;4.314;2024-02-15T01:34:57;13.67;;;12.97;;
18159;SDS011;9205;52.032;4.314;2024-02-15T01:37:23;15.20;;;14.20;;
18159;SDS011;9205;52.032;4.314;2024-02-15T01:39:52;14.20;;;13.30;;
18159;SDS011;9205;52.032;4.314;2024-02-15T01:42:19;13.67;;;12.97;;
18159;SDS011;9205;52.032;4.314;2024-02-15T01:44:46;13.73;;;13.03;;
18159;SDS011;9205;52.032;4.314;2024-02-15T01:47:14;15.53;;;14.13;;
18159;SDS011;9205;52.032;4.314;2024-02-15T01:49:45;13.87;;;13.07;;
18159;SDS011;9205;52.032;4.314;2024-02-15T01:52:14;13.37;;;12.67;;
18159;SDS011;9205;52.032;4.314;2024-02-15T01:54:43;14.80;;;13.80;;
18159;SDS011;9205;52.032;4.314;2024-02-15T01:57:13;13.60;;;12.90;;
18159;SDS011;9205;52.032;4.314;2024-02-15T01:59:42;13.93;;;13.23;;
18159;SDS011;9205;52.032;4.314;2024-02-15T02:02:10;15.03;;;13.63;;
18159;SDS011;9205;52.032;4.314;2024-02-15T02:04:40;13.87;;;13.17;;
18159;SDS011;9205;52.032;4.314;2024-02-15T02:07:08;15.30;;;14.30;;
18159;SDS011;9205;52.032;4.314;2024-02-15T02:09:36;15.50;;;14.50;;
18159;SDS011;9205;52.032;4.314;2024-02-15T02:12:03;14.40;;;13.63;;
18159;SDS011;9205;52.032;4.314;2024-02-15T02:14:34;14.00;;;13.20;;
18159;SDS011;9205;52.032;4.314;2024-02-15T02:17:10;14.07;;;13.37;;
18159;SDS011;9205;52.032;4.314;2024-02-15T02:19:38;14.80;;;14.00;;
18159;SDS011;9205;52.032;4.314;2024-02-15T02:22:06;14.90;;;14.00;;
18159;SDS011;9205;52.032;4.314;2024-02-15T02:24:40;14.90;;;13.80;;
18159;SDS011;9205;52.032;4.314;2024-02-15T02:27:22;14.63;;;13.93;;
18159;SDS011;9205;52.032;4.314;2024-02-15T02:29:52;15.13;;;14.33;;
18159;SDS011;9205;52.032;4.314;2024-02-15T02:32:21;15.03;;;14.13;;
18159;SDS011;9205;52.032;4.314;2024-02-15T02:34:48;15.20;;;14.30;;
18159;SDS011;9205;52.032;4.314;2024-02-15T02:37:15;15.10;;;14.30;;
18159;SDS011;9205;52.032;4.314;2024-02-15T02:39:42;15.03;;;14.27;;
18159;SDS011;9205;52.032;4.314;2024-02-15T02:42:11;15.70;;;14.47;;
18159;SDS011;9205;52.032;4.314;2024-02-15T02:44:38;15.47;;;14.10;;
18159;SDS011;9205;52.032;4.314;2024-02-15T02:47:05;14.93;;;14.23;;
18159;SDS011;9205;52.032;4.314;2024-02-15T02:49:32;15.47;;;14.67;;
18159;SDS011;9205;52.032;4.314;2024-02-15T02:52:02;15.37;;;14.57;;
18159;SDS011;9205;52.032;4.314;2024-02-15T02:54:30;15.70;;;14.80;;
18159;SDS011;9205;52.032;4.314;2024-02-15T02:56:58;15.97;;;15.03;;
18159;SDS011;9205;52.032;4.314;2024-02-15T02:59:26;15.47;;;14.67;;
18159;SDS011;9205;52.032;4.314;2024-02-15T03:01:54;15.10;;;14.30;;
18159;SDS011;9205;52.032;4.314;2024-02-15T03:04:21;15.23;;;14.33;;
18159;SDS011;9205;52.032;4.314;2024-02-15T03:06:48;14.53;;;13.83;;
18159;SDS011;9205;52.032;4.314;2024-02-15T03:09:16;14.40;;;13.70;;
18159;SDS011;9205;52.032;4.314;2024-02-15T03:11:45;15.37;;;14.57;;
18159;SDS011;9205;52.032;4.314;2024-02-15T03:14:12;15.00;;;14.20;;
18159;SDS011;9205;52.032;4.314;2024-02-15T03:16:41;15.17;;;14.37;;
18159;SDS011;9205;52.032;4.314;2024-02-15T03:19:08;15.00;;;14.20;;
18159;SDS011;9205;52.032;4.314;2024-02-15T03:21:37;15.03;;;14.23;;
18159;SDS011;9205;52.032;4.314;2024-02-15T03:24:05;14.80;;;14.00;;
18159;SDS011;9205;52.032;4.314;2024-02-15T03:26:32;14.73;;;13.83;;
18159;SDS011;9205;52.032;4.314;2024-02-15T03:29:02;14.50;;;13.70;;
18159;SDS011;9205;52.032;4.314;2024-02-15T03:31:29;13.70;;;13.00;;
18159;SDS011;9205;52.032;4.314;2024-02-15T03:33:58;13.77;;;13.07;;
18159;SDS011;9205;52.032;4.314;2024-02-15T03:36:25;14.10;;;12.87;;
18159;SDS011;9205;52.032;4.314;2024-02-15T03:38:54;13.70;;;13.00;;
18159;SDS011;9205;52.032;4.314;2024-02-15T03:41:21;12.90;;;12.30;;
18159;SDS011;9205;52.032;4.314;2024-02-15T03:43:50;12.70;;;12.10;;
18159;SDS011;9205;52.032;4.314;2024-02-15T03:46:17;12.53;;;11.93;;
18159;SDS011;9205;52.032;4.314;2024-02-15T03:48:44;12.77;;;11.90;;
18159;SDS011;9205;52.032;4.314;2024-02-15T03:51:16;11.60;;;11.00;;
18159;SDS011;9205;52.032;4.314;2024-02-15T03:53:45;12.50;;;11.60;;
18159;SDS011;9205;52.032;4.314;2024-02-15T03:56:14;11.50;;;10.60;;
18159;SDS011;9205;52.032;4.314;2024-02-15T03:58:41;11.90;;;11.03;;
18159;SDS011;9205;52.032;4.314;2024-02-15T04:01:08;11.83;;;11.23;;
18159;SDS011;9205;52.032;4.314;2024-02-15T04:03:36;11.90;;;11.30;;
18159;SDS011;9205;52.032;4.314;2024-02-15T04:06:03;12.53;;;11.70;;
18159;SDS011;9205;52.032;4.314;2024-02-15T04:08:32;12.60;;;11.90;;
18159;SDS011;9205;52.032;4.314;2024-02-15T04:11:00;13.07;;;11.90;;
18159;SDS011;9205;52.032;4.314;2024-02-15T04:13:28;13.00;;;12.10;;
18159;SDS011;9205;52.032;4.314;2024-02-15T04:15:55;12.53;;;11.73;;
18159;SDS011;9205;52.032;4.314;2024-02-15T04:18:22;11.97;;;11.37;;
18159;SDS011;9205;52.032;4.314;2024-02-15T04:20:49;11.60;;;11.00;;
18159;SDS011;9205;52.032;4.314;2024-02-15T04:23:16;12.50;;;11.70;;
18159;SDS011;9205;52.032;4.314;2024-02-15T04:25:45;11.80;;;11.20;;
18159;SDS011;9205;52.032;4.314;2024-02-15T04:28:16;11.37;;;10.73;;
18159;SDS011;9205;52.032;4.314;2024-02-15T04:30:43;12.40;;;11.67;;
18159;SDS011;9205;52.032;4.314;2024-02-15T04:33:12;11.57;;;10.87;;
18159;SDS011;9205;52.032;4.314;2024-02-15T04:35:40;11.73;;;11.03;;
18159;SDS011;9205;52.032;4.314;2024-02-15T04:38:08;12.10;;;11.50;;
18159;SDS011;9205;52.032;4.314;2024-02-15T04:40:35;11.97;;;11.27;;
18159;SDS011;9205;52.032;4.314;2024-02-15T04:43:06;13.33;;;12.43;;
18159;SDS011;9205;52.032;4.314;2024-02-15T04:45:34;12.70;;;11.87;;
18159;SDS011;9205;52.032;4.314;2024-02-15T04:48:01;12.43;;;11.73;;
18159;SDS011;9205;52.032;4.314;2024-02-15T04:50:29;12.17;;;11.47;;
18159;SDS011;9205;52.032;4.314;2024-02-15T04:52:56;11.90;;;11.20;;
18159;SDS011;9205;52.032;4.314;2024-02-15T04:55:23;12.63;;;11.20;;
18159;SDS011;9205;52.032;4.314;2024-02-15T04:57:51;12.33;;;11.63;;
18159;SDS011;9205;52.032;4.314;2024-02-15T05:00:23;13.03;;;12.23;;
18159;SDS011;9205;52.032;4.314;2024-02-15T05:02:51;12.53;;;11.77;;
18159;SDS011;9205;52.032;4.314;2024-02-15T05:05:19;13.07;;;11.93;;
18159;SDS011;9205;52.032;4.314;2024-02-15T05:07:47;12.60;;;11.90;;
18159;SDS011;9205;52.032;4.314;2024-02-15T05:10:15;12.33;;;11.63;;
18159;SDS011;9205;52.032;4.314;2024-02-15T05:12:42;12.50;;;11.77;;
18159;SDS011;9205;52.032;4.314;2024-02-15T05:15:12;13.43;;;11.83;;
18159;SDS011;9205;52.032;4.314;2024-02-15T05:17:44;12.27;;;11.60;;
18159;SDS011;9205;52.032;4.314;2024-02-15T05:20:11;12.27;;;11.60;;
18159;SDS011;9205;52.032;4.314;2024-02-15T05:22:39;12.90;;;11.90;;
18159;SDS011;9205;52.032;4.314;2024-02-15T05:25:09;11.40;;;10.80;;
18159;SDS011;9205;52.032;4.314;2024-02-15T05:27:37;12.00;;;11.20;;
18159;SDS011;9205;52.032;4.314;2024-02-15T05:30:05;12.53;;;11.83;;
18159;SDS011;9205;52.032;4.314;2024-02-15T05:32:34;13.07;;;12.17;;
18159;SDS011;9205;52.032;4.314;2024-02-15T05:35:08;12.20;;;11.50;;
18159;SDS011;9205;52.032;4.314;2024-02-15T05:37:36;13.33;;;12.17;;
18159;SDS011;9205;52.032;4.314;2024-02-15T05:40:03;12.13;;;11.43;;
18159;SDS011;9205;52.032;4.314;2024-02-15T05:42:32;11.87;;;11.17;;
18159;SDS011;9205;52.032;4.314;2024-02-15T05:48:05;13.23;;;12.47;;
18159;SDS011;9205;52.032;4.314;2024-02-15T05:50:35;12.90;;;12.00;;
18159;SDS011;9205;52.032;4.314;2024-02-15T05:53:02;12.43;;;11.80;;
18159;SDS011;9205;52.032;4.314;2024-02-15T05:55:31;12.70;;;12.00;;
18159;SDS011;9205;52.032;4.314;2024-02-15T05:57:59;12.93;;;12.20;;
18159;SDS011;9205;52.032;4.314;2024-02-15T06:00:26;12.83;;;11.97;;
18159;SDS011;9205;52.032;4.314;2024-02-15T06:02:55;12.20;;;11.50;;
18159;SDS011;9205;52.032;4.314;2024-02-15T06:05:23;12.70;;;11.97;;
18159;SDS011;9205;52.032;4.314;2024-02-15T06:07:51;12.10;;;11.40;;
18159;SDS011;9205;52.032;4.314;2024-02-15T06:10:18;12.53;;;11.83;;
18159;SDS011;9205;52.032;4.314;2024-02-15T06:12:45;12.20;;;11.50;;
18159;SDS011;9205;52.032;4.314;2024-02-15T06:15:13;11.67;;;11.07;;
18159;SDS011;9205;52.032;4.314;2024-02-15T06:17:41;12.03;;;11.43;;
18159;SDS011;9205;52.032;4.314;2024-02-15T06:20:11;12.77;;;12.07;;
18159;SDS011;9205;52.032;4.314;2024-02-15T06:22:41;13.50;;;12.70;;
18159;SDS011;9205;52.032;4.314;2024-02-15T06:25:09;12.40;;;11.60;;
18159;SDS011;9205;52.032;4.314;2024-02-15T06:27:37;12.20;;;11.60;;
18159;SDS011;9205;52.032;4.314;2024-02-15T06:30:06;13.60;;;12.80;;
18159;SDS011;9205;52.032;4.314;2024-02-15T06:32:52;13.10;;;12.40;;
18159;SDS011;9205;52.032;4.314;2024-02-15T06:35:37;12.80;;;12.10;;
18159;SDS011;9205;52.032;4.314;2024-02-15T06:38:22;12.20;;;11.60;;
18159;SDS011;9205;52.032;4.314;2024-02-15T06:41:08;13.03;;;12.30;;
18159;SDS011;9205;52.032;4.314;2024-02-15T06:43:35;13.50;;;12.80;;
18159;SDS011;9205;52.032;4.314;2024-02-15T06:46:06;13.93;;;13.03;;
18159;SDS011;9205;52.032;4.314;2024-02-15T06:48:35;15.70;;;14.43;;
18159;SDS011;9205;52.032;4.314;2024-02-15T06:51:03;15.70;;;14.37;;
18159;SDS011;9205;52.032;4.314;2024-02-15T06:53:31;14.97;;;13.90;;
18159;SDS011;9205;52.032;4.314;2024-02-15T06:55:58;15.17;;;13.83;;
18159;SDS011;9205;52.032;4.314;2024-02-15T06:58:27;13.83;;;13.07;;
18159;SDS011;9205;52.032;4.314;2024-02-15T07:00:54;14.90;;;14.10;;
18159;SDS011;9205;52.032;4.314;2024-02-15T07:03:21;17.27;;;16.03;;
18159;SDS011;9205;52.032;4.314;2024-02-15T07:05:49;15.07;;;14.27;;
18159;SDS011;9205;52.032;4.314;2024-02-15T07:08:16;16.27;;;15.30;;
18159;SDS011;9205;52.032;4.314;2024-02-15T07:10:43;15.13;;;14.33;;
18159;SDS011;9205;52.032;4.314;2024-02-15T07:13:10;16.57;;;15.47;;
18159;SDS011;9205;52.032;4.314;2024-02-15T07:15:39;16.07;;;15.17;;
18159;SDS011;9205;52.032;4.314;2024-02-15T07:18:06;15.47;;;14.67;;
18159;SDS011;9205;52.032;4.314;2024-02-15T07:20:33;15.50;;;14.70;;
18159;SDS011;9205;52.032;4.314;2024-02-15T07:23:00;15.30;;;14.50;;
18159;SDS011;9205;52.032;4.314;2024-02-15T07:25:28;15.03;;;14.23;;
18159;SDS011;9205;52.032;4.314;2024-02-15T07:27:56;17.27;;;16.35;;
18159;SDS011;9205;52.032;4.314;2024-02-15T07:30:24;15.80;;;15.00;;
18159;SDS011;9205;52.032;4.314;2024-02-15T07:32:52;14.50;;;13.70;;
18159;SDS011;9205;52.032;4.314;2024-02-15T07:35:19;15.50;;;14.70;;
18159;SDS011;9205;52.032;4.314;2024-02-15T07:37:51;16.07;;;15.13;;
18159;SDS011;9205;52.032;4.314;2024-02-15T07:40:20;15.30;;;14.50;;
18159;SDS011;9205;52.032;4.314;2024-02-15T07:42:48;15.53;;;14.43;;
18159;SDS011;9205;52.032;4.314;2024-02-15T07:45:17;14.83;;;13.93;;
18159;SDS011;9205;52.032;4.314;2024-02-15T07:47:44;15.00;;;14.10;;
18159;SDS011;9205;52.032;4.314;2024-02-15T07:50:16;14.60;;;13.80;;
18159;SDS011;9205;52.032;4.314;2024-02-15T07:52:45;15.07;;;14.27;;
18159;SDS011;9205;52.032;4.314;2024-02-15T07:55:13;15.40;;;14.30;;
18159;SDS011;9205;52.032;4.314;2024-02-15T07:57:40;14.30;;;13.60;;
18159;SDS011;9205;52.032;4.314;2024-02-15T08:00:07;14.10;;;13.27;;
18159;SDS011;9205;52.032;4.314;2024-02-15T08:02:37;15.53;;;14.63;;
18159;SDS011;9205;52.032;4.314;2024-02-15T08:05:06;14.23;;;13.47;;
18159;SDS011;9205;52.032;4.314;2024-02-15T08:07:37;14.33;;;13.57;;
18159;SDS011;9205;52.032;4.314;2024-02-15T08:10:07;14.47;;;13.77;;
18159;SDS011;9205;52.032;4.314;2024-02-15T08:12:38;15.33;;;14.53;;
18159;SDS011;9205;52.032;4.314;2024-02-15T08:15:07;14.70;;;13.90;;
18159;SDS011;9205;52.032;4.314;2024-02-15T08:17:38;15.00;;;14.10;;
18159;SDS011;9205;52.032;4.314;2024-02-15T08:20:07;14.57;;;13.83;;
18159;SDS011;9205;52.032;4.314;2024-02-15T08:22:38;14.20;;;13.50;;
18159;SDS011;9205;52.032;4.314;2024-02-15T08:25:06;15.17;;;14.17;;
18159;SDS011;9205;52.032;4.314;2024-02-15T08:27:36;14.50;;;13.70;;
18159;SDS011;9205;52.032;4.314;2024-02-15T08:30:08;14.40;;;13.27;;
18159;SDS011;9205;52.032;4.314;2024-02-15T08:32:37;14.53;;;13.70;;
18159;SDS011;9205;52.032;4.314;2024-02-15T08:35:05;14.23;;;13.53;;
18159;SDS011;9205;52.032;4.314;2024-02-15T08:37:35;15.13;;;14.23;;
18159;SDS011;9205;52.032;4.314;2024-02-15T08:40:05;14.17;;;13.37;;
18159;SDS011;9205;52.032;4.314;2024-02-15T08:42:37;15.47;;;14.67;;
18159;SDS011;9205;52.032;4.314;2024-02-15T08:45:05;14.97;;;13.90;;
18159;SDS011;9205;52.032;4.314;2024-02-15T08:47:35;15.87;;;14.73;;
18159;SDS011;9205;52.032;4.314;2024-02-15T08:50:04;15.87;;;15.03;;
18159;SDS011;9205;52.032;4.314;2024-02-15T08:52:34;16.50;;;14.77;;
18159;SDS011;9205;52.032;4.314;2024-02-15T08:55:05;15.43;;;14.53;;
18159;SDS011;9205;52.032;4.314;2024-02-15T08:57:35;15.27;;;14.43;;
18159;SDS011;9205;52.032;4.314;2024-02-15T09:00:06;16.17;;;15.17;;
18159;SDS011;9205;52.032;4.314;2024-02-15T09:02:38;14.90;;;14.10;;
18159;SDS011;9205;52.032;4.314;2024-02-15T09:05:05;15.47;;;14.13;;
18159;SDS011;9205;52.032;4.314;2024-02-15T09:07:33;14.00;;;13.10;;
18159;SDS011;9205;52.032;4.314;2024-02-15T09:10:01;14.90;;;13.70;;
18159;SDS011;9205;52.032;4.314;2024-02-15T09:12:30;15.53;;;14.70;;
18159;SDS011;9205;52.032;4.314;2024-02-15T09:14:57;15.47;;;14.67;;
18159;SDS011;9205;52.032;4.314;2024-02-15T09:17:25;16.00;;;15.13;;
18159;SDS011;9205;52.032;4.314;2024-02-15T09:19:52;17.90;;;16.43;;
18159;SDS011;9205;52.032;4.314;2024-02-15T09:22:19;15.47;;;14.67;;
18159;SDS011;9205;52.032;4.314;2024-02-15T09:24:47;15.97;;;14.93;;
18159;SDS011;9205;52.032;4.314;2024-02-15T09:27:14;16.47;;;15.57;;
18159;SDS011;9205;52.032;4.314;2024-02-15T09:29:42;16.23;;;15.43;;
18159;SDS011;9205;52.032;4.314;2024-02-15T09:32:09;16.00;;;15.20;;
18159;SDS011;9205;52.032;4.314;2024-02-15T09:34:37;17.17;;;16.27;;
18159;SDS011;9205;52.032;4.314;2024-02-15T09:37:05;16.97;;;16.07;;
18159;SDS011;9205;52.032;4.314;2024-02-15T09:39:32;17.73;;;16.70;;
18159;SDS011;9205;52.032;4.314;2024-02-15T09:42:01;18.03;;;16.93;;
18159;SDS011;9205;52.032;4.314;2024-02-15T09:44:28;16.03;;;14.93;;
18159;SDS011;9205;52.032;4.314;2024-02-15T09:46:59;16.97;;;16.07;;
18159;SDS011;9205;52.032;4.314;2024-02-15T09:49:33;15.30;;;14.50;;
18159;SDS011;9205;52.032;4.314;2024-02-15T09:52:04;17.27;;;16.10;;
18159;SDS011;9205;52.032;4.314;2024-02-15T09:54:38;17.03;;;16.03;;
18159;SDS011;9205;52.032;4.314;2024-02-15T09:57:08;17.87;;;16.87;;
18159;SDS011;9205;52.032;4.314;2024-02-15T09:59:36;17.00;;;16.10;;
18159;SDS011;9205;52.032;4.314;2024-02-15T10:02:06;17.03;;;16.17;;
18159;SDS011;9205;52.032;4.314;2024-02-15T10:04:36;16.70;;;15.80;;
18159;SDS011;9205;52.032;4.314;2024-02-15T10:07:04;16.87;;;15.97;;
18159;SDS011;9205;52.032;4.314;2024-02-15T10:09:34;16.97;;;16.07;;
18159;SDS011;9205;52.032;4.314;2024-02-15T10:12:02;17.40;;;16.50;;
18159;SDS011;9205;52.032;4.314;2024-02-15T10:14:32;18.13;;;16.93;;
18159;SDS011;9205;52.032;4.314;2024-02-15T10:17:05;17.00;;;16.10;;
18159;SDS011;9205;52.032;4.314;2024-02-15T10:19:36;27.33;;;17.57;;
18159;SDS011;9205;52.032;4.314;2024-02-15T10:22:06;18.40;;;17.40;;
18159;SDS011;9205;52.032;4.314;2024-02-15T10:24:36;18.60;;;17.60;;
18159;SDS011;9205;52.032;4.314;2024-02-15T10:27:05;20.00;;;18.70;;
18159;SDS011;9205;52.032;4.314;2024-02-15T10:29:32;19.30;;;18.27;;
18159;SDS011;9205;52.032;4.314;2024-02-15T10:32:00;20.10;;;18.73;;
18159;SDS011;9205;52.032;4.314;2024-02-15T10:34:36;18.67;;;17.73;;
18159;SDS011;9205;52.032;4.314;2024-02-15T10:37:11;21.50;;;20.30;;
18159;SDS011;9205;52.032;4.314;2024-02-15T10:39:41;18.57;;;17.67;;
18159;SDS011;9205;52.032;4.314;2024-02-15T10:42:09;20.33;;;18.60;;
18159;SDS011;9205;52.032;4.314;2024-02-15T10:44:37;19.47;;;18.47;;
18159;SDS011;9205;52.032;4.314;2024-02-15T10:47:05;20.37;;;19.27;;
18159;SDS011;9205;52.032;4.314;2024-02-15T10:49:34;20.07;;;18.97;;
18159;SDS011;9205;52.032;4.314;2024-02-15T10:52:03;19.53;;;18.53;;
18159;SDS011;9205;52.032;4.314;2024-02-15T10:54:40;21.20;;;20.10;;
18159;SDS011;9205;52.032;4.314;2024-02-15T10:57:13;19.67;;;18.67;;
18159;SDS011;9205;52.032;4.314;2024-02-15T10:59:51;20.00;;;18.90;;
18159;SDS011;9205;52.032;4.314;2024-02-15T11:02:26;19.13;;;18.13;;
18159;SDS011;9205;52.032;4.314;2024-02-15T11:04:59;18.97;;;18.07;;
18159;SDS011;9205;52.032;4.314;2024-02-15T11:07:31;19.37;;;18.37;;
18159;SDS011;9205;52.032;4.314;2024-02-15T11:09:58;20.80;;;19.10;;
18159;SDS011;9205;52.032;4.314;2024-02-15T11:12:27;20.43;;;19.23;;
18159;SDS011;9205;52.032;4.314;2024-02-15T11:14:56;19.97;;;18.90;;
18159;SDS011;9205;52.032;4.314;2024-02-15T11:23:25;20.27;;;19.27;;
18159;SDS011;9205;52.032;4.314;2024-02-15T11:25:53;21.10;;;20.00;;
18159;SDS011;9205;52.032;4.314;2024-02-15T11:28:37;22.47;;;21.27;;
18159;SDS011;9205;52.032;4.314;2024-02-15T11:31:14;22.23;;;21.00;;
18159;SDS011;9205;52.032;4.314;2024-02-15T11:40:28;27.70;;;26.27;;
18159;SDS011;9205;52.032;4.314;2024-02-15T11:43:51;26.73;;;25.33;;
18159;SDS011;9205;52.032;4.314;2024-02-15T11:46:26;26.83;;;25.43;;
18159;SDS011;9205;52.032;4.314;2024-02-15T11:48:59;28.73;;;27.00;;
18159;SDS011;9205;52.032;4.314;2024-02-15T11:51:30;28.27;;;26.77;;
18159;SDS011;9205;52.032;4.314;2024-02-15T11:54:03;27.33;;;25.93;;
18159;SDS011;9205;52.032;4.314;2024-02-15T11:56:32;28.60;;;27.10;;
18159;SDS011;9205;52.032;4.314;2024-02-15T11:59:30;27.70;;;26.30;;
18159;SDS011;9205;52.032;4.314;2024-02-15T12:02:18;28.87;;;27.37;;
18159;SDS011;9205;52.032;4.314;2024-02-15T12:05:03;29.27;;;27.73;;
18159;SDS011;9205;52.032;4.314;2024-02-15T12:07:49;29.97;;;28.47;;
18159;SDS011;9205;52.032;4.314;2024-02-15T12:10:35;29.70;;;28.10;;
18159;SDS011;9205;52.032;4.314;2024-02-15T12:13:20;30.10;;;28.43;;
18159;SDS011;9205;52.032;4.314;2024-02-15T12:16:19;31.97;;;30.37;;
18159;SDS011;9205;52.032;4.314;2024-02-15T12:19:06;32.53;;;30.83;;
18159;SDS011;9205;52.032;4.314;2024-02-15T12:21:36;32.83;;;30.93;;
18159;SDS011;9205;52.032;4.314;2024-02-15T12:24:06;33.90;;;32.10;;
18159;SDS011;9205;52.032;4.314;2024-02-15T12:26:35;34.80;;;32.90;;
18159;SDS011;9205;52.032;4.314;2024-02-15T12:29:03;33.73;;;32.03;;
18159;SDS011;9205;52.032;4.314;2024-02-15T12:31:33;36.30;;;34.40;;
18159;SDS011;9205;52.032;4.314;2024-02-15T12:34:04;37.37;;;35.37;;
18159;SDS011;9205;52.032;4.314;2024-02-15T12:36:32;39.43;;;37.37;;
18159;SDS011;9205;52.032;4.314;2024-02-15T12:39:02;41.50;;;39.40;;
18159;SDS011;9205;52.032;4.314;2024-02-15T12:41:37;46.20;;;43.80;;
18159;SDS011;9205;52.032;4.314;2024-02-15T12:44:06;44.90;;;42.60;;
18159;SDS011;9205;52.032;4.314;2024-02-15T12:46:35;48.37;;;45.87;;
18159;SDS011;9205;52.032;4.314;2024-02-15T12:49:06;48.93;;;46.23;;
18159;SDS011;9205;52.032;4.314;2024-02-15T12:51:54;49.67;;;47.13;;
18159;SDS011;9205;52.032;4.314;2024-02-15T12:55:11;51.97;;;49.27;;
18159;SDS011;9205;52.032;4.314;2024-02-15T12:57:44;50.70;;;48.10;;
18159;SDS011;9205;52.032;4.314;2024-02-15T13:00:17;55.43;;;52.53;;
18159;SDS011;9205;52.032;4.314;2024-02-15T13:02:46;57.47;;;54.47;;
18159;SDS011;9205;52.032;4.314;2024-02-15T13:05:15;58.70;;;55.37;;
18159;SDS011;9205;52.032;4.314;2024-02-15T13:07:44;51.07;;;48.47;;
18159;SDS011;9205;52.032;4.314;2024-02-15T13:10:12;53.33;;;50.63;;
18159;SDS011;9205;52.032;4.314;2024-02-15T13:12:41;55.47;;;52.67;;
18159;SDS011;9205;52.032;4.314;2024-02-15T13:15:10;56.17;;;53.30;;
18159;SDS011;9205;52.032;4.314;2024-02-15T13:17:40;57.13;;;54.20;;
18159;SDS011;9205;52.032;4.314;2024-02-15T13:20:10;56.80;;;53.80;;
18159;SDS011;9205;52.032;4.314;2024-02-15T13:22:39;50.80;;;48.20;;
18159;SDS011;9205;52.032;4.314;2024-02-15T13:25:10;51.80;;;49.10;;
18159;SDS011;9205;52.032;4.314;2024-02-15T13:27:37;55.20;;;52.40;;
18159;SDS011;9205;52.032;4.314;2024-02-15T13:30:05;55.77;;;52.97;;
18159;SDS011;9205;52.032;4.314;2024-02-15T13:32:36;55.20;;;52.40;;
18159;SDS011;9205;52.032;4.314;2024-02-15T13:35:06;57.87;;;54.70;;
18159;SDS011;9205;52.032;4.314;2024-02-15T13:37:42;57.10;;;54.20;;
18159;SDS011;9205;52.032;4.314;2024-02-15T13:40:12;58.80;;;55.80;;
18159;SDS011;9205;52.032;4.314;2024-02-15T13:42:42;57.17;;;54.27;;
18159;SDS011;9205;52.032;4.314;2024-02-15T13:45:14;49.37;;;46.87;;
18159;SDS011;9205;52.032;4.314;2024-02-15T13:47:45;53.80;;;51.10;;
18159;SDS011;9205;52.032;4.314;2024-02-15T13:50:13;58.53;;;55.10;;
18159;SDS011;9205;52.032;4.314;2024-02-15T13:52:40;56.90;;;54.00;;
18159;SDS011;9205;52.032;4.314;2024-02-15T13:55:10;56.80;;;53.90;;
18159;SDS011;9205;52.032;4.314;2024-02-15T13:57:38;48.73;;;46.23;;
18159;SDS011;9205;52.032;4.314;2024-02-15T14:00:07;53.10;;;50.40;;
18159;SDS011;9205;52.032;4.314;2024-02-15T14:02:40;48.97;;;46.40;;
18159;SDS011;9205;52.032;4.314;2024-02-15T14:05:09;51.70;;;49.10;;
18159;SDS011;9205;52.032;4.314;2024-02-15T14:07:37;51.63;;;49.03;;
18159;SDS011;9205;52.032;4.314;2024-02-15T14:10:05;50.00;;;47.50;;
18159;SDS011;9205;52.032;4.314;2024-02-15T14:12:33;52.07;;;49.47;;
18159;SDS011;9205;52.032;4.314;2024-02-15T14:15:00;53.87;;;51.17;;
18159;SDS011;9205;52.032;4.314;2024-02-15T14:17:28;55.03;;;52.23;;
18159;SDS011;9205;52.032;4.314;2024-02-15T14:19:55;53.83;;;51.10;;
18159;SDS011;9205;52.032;4.314;2024-02-15T14:22:24;57.80;;;54.73;;
18159;SDS011;9205;52.032;4.314;2024-02-15T14:24:54;51.80;;;49.13;;
18159;SDS011;9205;52.032;4.314;2024-02-15T14:27:21;46.70;;;44.33;;
18159;SDS011;9205;52.032;4.314;2024-02-15T14:29:49;43.07;;;40.80;;
18159;SDS011;9205;52.032;4.314;2024-02-15T14:32:34;46.63;;;44.30;;
18159;SDS011;9205;52.032;4.314;2024-02-15T14:35:19;45.93;;;43.33;;
18159;SDS011;9205;52.032;4.314;2024-02-15T14:37:48;48.77;;;46.27;;
18159;SDS011;9205;52.032;4.314;2024-02-15T14:40:15;49.43;;;46.90;;
18159;SDS011;9205;52.032;4.314;2024-02-15T14:42:42;43.43;;;41.23;;
18159;SDS011;9205;52.032;4.314;2024-02-15T14:45:11;45.27;;;42.87;;
18159;SDS011;9205;52.032;4.314;2024-02-15T14:47:38;44.90;;;42.60;;
18159;SDS011;9205;52.032;4.314;2024-02-15T14:50:07;38.57;;;36.57;;
18159;SDS011;9205;52.032;4.314;2024-02-15T14:52:38;45.27;;;42.97;;
18159;SDS011;9205;52.032;4.314;2024-02-15T14:55:07;44.00;;;41.70;;
18159;SDS011;9205;52.032;4.314;2024-02-15T14:57:35;42.20;;;40.00;;
18159;SDS011;9205;52.032;4.314;2024-02-15T15:00:03;42.33;;;40.13;;
18159;SDS011;9205;52.032;4.314;2024-02-15T15:02:36;41.97;;;39.77;;
18159;SDS011;9205;52.032;4.314;2024-02-15T15:05:03;42.70;;;40.50;;